Time;durP1;ratioP1;P1;durP2;ratioP2;P2;SDS_P1;SDS_P2;PMS_P1;PMS_P2;Temp;Humidity;BMP_temperature;BMP_pressure;BME280_temperature;BME280_humidity;BME280_pressure;Samples;Min_cycle;Max_cycle;Signal;HPM_P1;HPM_P2
2021/08/25 00:00:06;;;;;;;;;;;25.50;60.80;;;;;;4992633;28;19976;-63
2021/08/25 00:02:33;;;;;;;;;;;25.50;60.80;;;;;;4991758;28;19926;-63
2021/08/25 00:05:00;;;;;;;;;;;25.50;60.80;;;;;;4991178;28;19951;-63
2021/08/25 00:07:27;;;;;;;;;;;25.50;60.80;;;;;;4991258;28;20009;-63
2021/08/25 00:09:54;;;;;;;;;;;25.50;60.80;;;;;;4992300;28;20416;-62
2021/08/25 00:12:21;;;;;;;;;;;25.50;60.80;;;;;;4974240;28;20354;-63
2021/08/25 00:14:48;;;;;;;;;;;25.50;60.90;;;;;;4991407;28;19968;-62
2021/08/25 00:17:15;;;;;;;;;;;25.50;60.90;;;;;;4991437;28;19995;-63
2021/08/25 00:19:42;;;;;;;;;;;25.50;61.00;;;;;;4992034;28;19930;-63
2021/08/25 00:22:11;;;;;;;;;;;25.50;60.90;;;;;;4992098;28;20446;-63
2021/08/25 00:24:38;;;;;;;;;;;25.40;60.80;;;;;;4990970;28;19925;-62
2021/08/25 00:27:05;;;;;;;;;;;25.40;60.80;;;;;;4990977;28;19979;-62
2021/08/25 00:29:33;;;;;;;;;;;25.40;60.80;;;;;;4991181;28;19929;-63
2021/08/25 00:32:01;;;;;;;;;;;25.50;60.80;;;;;;4991964;28;20378;-62
2021/08/25 00:34:28;;;;;;;;;;;25.50;60.80;;;;;;4992090;28;19926;-63
2021/08/25 00:36:55;;;;;;;;;;;25.50;60.80;;;;;;4991804;28;20461;-63
2021/08/25 00:39:22;;;;;;;;;;;25.50;60.80;;;;;;4992268;28;19975;-62
2021/08/25 00:41:48;;;;;;;;;;;25.50;60.80;;;;;;4974907;28;20021;-62
2021/08/25 00:44:16;;;;;;;;;;;25.40;60.80;;;;;;4991385;28;20009;-63
2021/08/25 00:46:43;;;;;;;;;;;25.50;60.90;;;;;;4991747;28;19932;-63
2021/08/25 00:49:10;;;;;;;;;;;25.40;60.80;;;;;;4992194;28;19933;-63
2021/08/25 00:51:37;;;;;;;;;;;25.50;60.90;;;;;;4991678;28;19926;-63
2021/08/25 00:54:05;;;;;;;;;;;25.40;60.80;;;;;;4974057;28;20036;-63
2021/08/25 00:56:32;;;;;;;;;;;25.40;60.80;;;;;;4991306;28;19938;-63
2021/08/25 00:58:59;;;;;;;;;;;25.40;60.80;;;;;;4990340;28;19926;-63
2021/08/25 01:01:39;;;;;;;;;;;25.50;60.80;;;;;;4991615;28;19996;-63
2021/08/25 01:04:08;;;;;;;;;;;25.50;60.80;;;;;;4990756;28;19926;-62
2021/08/25 01:06:35;;;;;;;;;;;25.50;60.80;;;;;;4991419;28;19930;-63
2021/08/25 01:09:03;;;;;;;;;;;25.50;60.90;;;;;;4991318;28;19973;-62
2021/08/25 01:11:31;;;;;;;;;;;25.40;60.80;;;;;;4991386;28;19926;-63
2021/08/25 01:13:58;;;;;;;;;;;25.40;60.80;;;;;;4990621;28;19976;-62
2021/08/25 01:16:25;;;;;;;;;;;25.50;60.80;;;;;;4991229;28;19961;-63
2021/08/25 01:18:52;;;;;;;;;;;25.50;60.80;;;;;;4991558;28;20046;-62
2021/08/25 01:21:20;;;;;;;;;;;25.50;60.80;;;;;;4991260;28;19933;-63
2021/08/25 01:23:47;;;;;;;;;;;25.40;60.80;;;;;;4991331;28;19972;-62
2021/08/25 01:26:15;;;;;;;;;;;25.40;60.80;;;;;;4991145;28;19962;-63
2021/08/25 01:28:45;;;;;;;;;;;25.40;60.90;;;;;;4990233;28;20020;-63
2021/08/25 01:31:12;;;;;;;;;;;25.40;60.90;;;;;;4991021;28;20197;-62
2021/08/25 01:33:39;;;;;;;;;;;25.40;60.90;;;;;;4991079;28;20459;-63
2021/08/25 01:36:12;;;;;;;;;;;25.40;60.90;;;;;;4972960;28;19960;-62
2021/08/25 01:38:47;;;;;;;;;;;25.40;61.00;;;;;;4990309;28;20377;-63
2021/08/25 01:41:14;;;;;;;;;;;25.40;60.90;;;;;;4989893;28;19954;-63
2021/08/25 01:43:41;;;;;;;;;;;25.40;60.90;;;;;;4989729;28;19932;-63
2021/08/25 01:46:16;;;;;;;;;;;25.40;60.90;;;;;;4990131;28;20033;-63
2021/08/25 01:48:47;;;;;;;;;;;25.40;60.90;;;;;;4990013;28;19926;-62
2021/08/25 01:51:14;;;;;;;;;;;25.40;60.90;;;;;;4990322;28;20435;-63
2021/08/25 01:53:41;;;;;;;;;;;25.40;60.90;;;;;;4974369;28;20025;-62
2021/08/25 01:56:08;;;;;;;;;;;25.40;60.90;;;;;;4956505;28;19965;-62
2021/08/25 01:58:35;;;;;;;;;;;25.30;60.80;;;;;;4989986;28;19958;-62
2021/08/25 02:01:02;;;;;;;;;;;25.40;60.90;;;;;;4989760;28;19926;-62
2021/08/25 02:03:29;;;;;;;;;;;25.30;60.80;;;;;;4990613;28;19926;-62
2021/08/25 02:05:56;;;;;;;;;;;25.40;60.90;;;;;;4972712;28;19971;-63
2021/08/25 02:08:23;;;;;;;;;;;25.40;61.00;;;;;;4990827;28;19936;-62
2021/08/25 02:10:50;;;;;;;;;;;25.30;60.90;;;;;;4972594;28;19964;-62
2021/08/25 02:13:16;;;;;;;;;;;25.40;61.00;;;;;;4989616;28;19926;-62
2021/08/25 02:15:43;;;;;;;;;;;25.30;60.90;;;;;;4990449;28;20017;-62
2021/08/25 02:18:10;;;;;;;;;;;25.40;61.00;;;;;;4990748;28;20335;-63
2021/08/25 02:20:37;;;;;;;;;;;25.40;61.00;;;;;;4977669;28;19933;-63
2021/08/25 02:23:04;;;;;;;;;;;25.30;61.00;;;;;;4990622;28;20319;-62
2021/08/25 02:25:31;;;;;;;;;;;25.40;61.10;;;;;;4989250;28;19930;-62
2021/08/25 02:27:58;;;;;;;;;;;25.30;61.00;;;;;;4971794;28;19926;-63
2021/08/25 02:30:25;;;;;;;;;;;25.30;60.90;;;;;;4989713;28;19965;-63
2021/08/25 02:32:52;;;;;;;;;;;25.30;61.00;;;;;;4990511;28;19932;-63
2021/08/25 02:35:19;;;;;;;;;;;25.30;61.00;;;;;;4990026;28;19926;-63
2021/08/25 02:37:46;;;;;;;;;;;25.30;61.00;;;;;;4989043;28;20012;-63
2021/08/25 02:40:13;;;;;;;;;;;25.30;61.00;;;;;;4990098;28;20028;-63
2021/08/25 02:42:40;;;;;;;;;;;25.30;61.00;;;;;;4989369;28;19926;-62
2021/08/25 02:45:07;;;;;;;;;;;25.30;61.00;;;;;;4989124;28;20008;-63
2021/08/25 02:47:34;;;;;;;;;;;25.30;61.00;;;;;;4955967;28;20013;-63
2021/08/25 02:50:01;;;;;;;;;;;25.30;61.00;;;;;;4990350;28;20327;-63
2021/08/25 02:52:28;;;;;;;;;;;25.30;61.00;;;;;;4989748;28;20043;-62
2021/08/25 02:54:55;;;;;;;;;;;25.30;61.00;;;;;;4989853;28;19926;-63
2021/08/25 02:57:22;;;;;;;;;;;25.30;61.10;;;;;;4989854;28;19969;-63
2021/08/25 02:59:49;;;;;;;;;;;25.30;61.00;;;;;;4989948;28;19933;-63
2021/08/25 03:02:16;;;;;;;;;;;25.30;61.00;;;;;;4990243;28;20013;-63
2021/08/25 03:04:43;;;;;;;;;;;25.30;61.00;;;;;;4990001;28;19930;-63
2021/08/25 03:07:10;;;;;;;;;;;25.30;60.90;;;;;;4989809;28;19957;-62
2021/08/25 03:09:37;;;;;;;;;;;25.30;60.90;;;;;;4990111;28;20284;-63
2021/08/25 03:12:04;;;;;;;;;;;25.30;60.90;;;;;;4989635;28;20017;-62
2021/08/25 03:14:30;;;;;;;;;;;25.30;61.70;;;;;;4989784;28;20012;-62
2021/08/25 03:16:57;;;;;;;;;;;25.30;60.90;;;;;;4991160;28;19934;-62
2021/08/25 03:19:24;;;;;;;;;;;25.30;60.90;;;;;;4992246;28;19997;-62
2021/08/25 03:21:51;;;;;;;;;;;25.30;61.00;;;;;;4993354;28;19963;-63
2021/08/25 03:24:18;;;;;;;;;;;25.30;61.00;;;;;;4992914;28;19926;-63
2021/08/25 03:26:45;;;;;;;;;;;25.30;61.00;;;;;;4993024;28;19948;-63
2021/08/25 03:29:12;;;;;;;;;;;25.30;61.00;;;;;;4992873;28;19926;-63
2021/08/25 03:31:39;;;;;;;;;;;25.30;60.90;;;;;;4992195;28;19926;-62
2021/08/25 03:34:06;;;;;;;;;;;25.30;61.00;;;;;;4993041;28;19929;-62
2021/08/25 03:36:33;;;;;;;;;;;25.30;61.00;;;;;;4974296;28;20027;-63
2021/08/25 03:39:00;;;;;;;;;;;25.30;61.00;;;;;;4991833;28;19926;-62
2021/08/25 03:41:26;;;;;;;;;;;25.30;61.00;;;;;;4992850;28;20021;-63
2021/08/25 03:43:53;;;;;;;;;;;25.30;61.00;;;;;;4992848;28;19965;-62
2021/08/25 03:46:25;;;;;;;;;;;25.30;61.00;;;;;;4992483;28;20484;-63
2021/08/25 03:48:52;;;;;;;;;;;25.30;61.00;;;;;;4991620;28;19926;-62
2021/08/25 03:51:19;;;;;;;;;;;25.30;61.00;;;;;;4990900;28;19926;-63
2021/08/25 03:53:46;;;;;;;;;;;25.30;61.10;;;;;;4992719;28;20032;-64
2021/08/25 03:56:13;;;;;;;;;;;25.30;61.10;;;;;;4991290;28;19982;-63
2021/08/25 03:58:40;;;;;;;;;;;25.30;61.10;;;;;;4992381;28;19933;-63
2021/08/25 04:01:07;;;;;;;;;;;25.30;61.00;;;;;;4992888;28;19926;-63
2021/08/25 04:03:35;;;;;;;;;;;25.30;61.00;;;;;;4991505;28;19926;-63
2021/08/25 04:06:04;;;;;;;;;;;25.30;61.00;;;;;;4992277;28;20393;-63
2021/08/25 04:08:31;;;;;;;;;;;25.30;61.00;;;;;;4992366;28;20032;-63
2021/08/25 04:10:58;;;;;;;;;;;25.30;60.90;;;;;;4991161;28;20378;-62
2021/08/25 04:13:25;;;;;;;;;;;25.30;60.90;;;;;;4992587;28;20297;-62
2021/08/25 04:15:52;;;;;;;;;;;25.30;60.90;;;;;;4992513;28;20322;-63
2021/08/25 04:18:19;;;;;;;;;;;25.30;60.90;;;;;;4992377;28;19933;-63
2021/08/25 04:20:46;;;;;;;;;;;25.30;60.90;;;;;;4990988;28;19926;-63
2021/08/25 04:23:14;;;;;;;;;;;25.30;60.90;;;;;;4992421;28;19930;-64
2021/08/25 04:25:41;;;;;;;;;;;25.30;60.90;;;;;;4992043;28;19968;-63
2021/08/25 04:28:09;;;;;;;;;;;25.30;60.90;;;;;;4991413;28;20032;-63
2021/08/25 04:30:36;;;;;;;;;;;25.30;60.80;;;;;;4991973;28;19933;-63
2021/08/25 04:33:03;;;;;;;;;;;25.30;60.80;;;;;;4991795;28;19935;-63
2021/08/25 04:35:30;;;;;;;;;;;25.30;60.80;;;;;;4992123;28;19926;-63
2021/08/25 04:37:57;;;;;;;;;;;25.30;60.80;;;;;;4974322;28;19926;-63
2021/08/25 04:40:24;;;;;;;;;;;25.30;60.70;;;;;;4991747;28;19936;-63
2021/08/25 04:42:50;;;;;;;;;;;25.30;60.70;;;;;;4991806;28;20021;-63
2021/08/25 04:45:17;;;;;;;;;;;25.30;60.70;;;;;;4991998;28;20392;-63
2021/08/25 04:47:44;;;;;;;;;;;25.30;60.60;;;;;;4991700;28;19929;-63
2021/08/25 04:50:11;;;;;;;;;;;25.30;60.60;;;;;;4992087;28;20342;-63
2021/08/25 04:52:38;;;;;;;;;;;25.40;60.60;;;;;;4991701;28;19926;-62
2021/08/25 04:55:05;;;;;;;;;;;25.40;60.50;;;;;;4991578;28;20016;-63
2021/08/25 04:57:32;;;;;;;;;;;25.40;60.50;;;;;;4990424;28;20020;-63
2021/08/25 04:59:59;;;;;;;;;;;25.30;60.40;;;;;;4990533;28;20385;-63
2021/08/25 05:02:26;;;;;;;;;;;25.40;60.50;;;;;;4991485;28;20004;-63
2021/08/25 05:04:53;;;;;;;;;;;25.40;60.60;;;;;;4991682;28;20377;-63
2021/08/25 05:07:20;;;;;;;;;;;25.40;60.50;;;;;;4990419;28;19965;-64
2021/08/25 05:09:47;;;;;;;;;;;25.40;60.50;;;;;;4991522;28;19926;-64
2021/08/25 05:12:16;;;;;;;;;;;25.40;60.50;;;;;;4990307;28;19936;-64
2021/08/25 05:14:43;;;;;;;;;;;25.40;60.50;;;;;;4991337;28;19969;-63
2021/08/25 05:17:10;;;;;;;;;;;25.40;60.40;;;;;;4991077;28;19980;-63
2021/08/25 05:19:37;;;;;;;;;;;25.40;60.30;;;;;;4990041;28;19926;-63
2021/08/25 05:22:03;;;;;;;;;;;25.40;60.30;;;;;;4972872;28;19934;-63
2021/08/25 05:24:30;;;;;;;;;;;25.40;60.30;;;;;;4990030;28;19926;-63
2021/08/25 05:26:57;;;;;;;;;;;25.40;60.30;;;;;;4991030;28;20022;-63
2021/08/25 05:29:24;;;;;;;;;;;25.40;60.20;;;;;;4991052;28;19932;-63
2021/08/25 05:31:51;;;;;;;;;;;25.50;60.30;;;;;;4974362;28;19972;-63
2021/08/25 05:34:18;;;;;;;;;;;25.50;60.30;;;;;;4991287;28;20374;-64
2021/08/25 05:36:45;;;;;;;;;;;25.50;60.20;;;;;;4991227;28;20403;-63
2021/08/25 05:39:13;;;;;;;;;;;25.50;60.20;;;;;;4990799;28;19932;-64
2021/08/25 05:41:40;;;;;;;;;;;25.40;60.10;;;;;;4991416;28;19926;-63
2021/08/25 05:44:07;;;;;;;;;;;25.50;60.10;;;;;;4990711;28;20008;-64
2021/08/25 05:46:34;;;;;;;;;;;25.50;60.00;;;;;;4990679;28;19940;-64
2021/08/25 05:49:01;;;;;;;;;;;25.50;60.00;;;;;;4972415;28;20001;-64
2021/08/25 05:51:28;;;;;;;;;;;25.50;60.00;;;;;;4989731;28;19926;-63
2021/08/25 05:53:55;;;;;;;;;;;25.50;60.00;;;;;;4990720;28;19926;-63
2021/08/25 05:56:22;;;;;;;;;;;25.60;60.00;;;;;;4990338;28;19925;-63
2021/08/25 05:58:49;;;;;;;;;;;25.60;59.90;;;;;;4990221;28;19933;-62
2021/08/25 06:01:16;;;;;;;;;;;25.60;59.80;;;;;;4990274;28;19926;-63
2021/08/25 06:03:43;;;;;;;;;;;25.60;59.70;;;;;;4990713;28;19926;-63
2021/08/25 06:06:13;;;;;;;;;;;25.60;59.70;;;;;;4990303;28;19926;-62
2021/08/25 06:08:40;;;;;;;;;;;25.70;59.60;;;;;;4990483;28;20021;-64
2021/08/25 06:11:07;;;;;;;;;;;25.70;59.60;;;;;;4990335;28;19926;-64
2021/08/25 06:13:38;;;;;;;;;;;25.70;59.50;;;;;;4990315;28;20312;-63
2021/08/25 06:16:05;;;;;;;;;;;25.70;59.40;;;;;;4990220;28;19926;-62
2021/08/25 06:18:33;;;;;;;;;;;25.70;59.40;;;;;;4989329;28;19952;-62
2021/08/25 06:21:00;;;;;;;;;;;25.70;59.40;;;;;;4973408;28;19933;-62
2021/08/25 06:23:27;;;;;;;;;;;25.70;59.40;;;;;;4990550;28;20344;-62
2021/08/25 06:25:53;;;;;;;;;;;25.80;59.40;;;;;;4989478;28;19926;-63
2021/08/25 06:28:20;;;;;;;;;;;25.70;59.30;;;;;;4989114;28;19926;-62
2021/08/25 06:30:47;;;;;;;;;;;25.80;59.30;;;;;;4990488;28;19932;-63
2021/08/25 06:33:14;;;;;;;;;;;25.80;59.80;;;;;;4990611;28;20017;-63
2021/08/25 06:35:41;;;;;;;;;;;25.80;59.20;;;;;;4989790;28;19932;-63
2021/08/25 06:38:08;;;;;;;;;;;25.80;59.10;;;;;;4989927;28;20012;-63
2021/08/25 06:40:35;;;;;;;;;;;25.90;59.00;;;;;;4989997;28;19976;-63
2021/08/25 06:43:02;;;;;;;;;;;25.90;59.00;;;;;;4990401;28;19988;-63
2021/08/25 06:45:29;;;;;;;;;;;25.90;58.90;;;;;;4972963;28;19926;-63
2021/08/25 06:47:56;;;;;;;;;;;26.00;58.90;;;;;;4988880;28;19933;-62
2021/08/25 06:50:23;;;;;;;;;;;26.00;58.80;;;;;;4990354;28;20330;-62
2021/08/25 06:52:49;;;;;;;;;;;26.00;58.60;;;;;;4992223;28;20440;-62
2021/08/25 06:55:17;;;;;;;;;;;26.10;58.70;;;;;;4993090;28;20008;-62
2021/08/25 06:57:44;;;;;;;;;;;26.00;58.60;;;;;;4992031;28;19975;-62
2021/08/25 07:00:11;;;;;;;;;;;26.10;58.50;;;;;;4993158;28;19926;-63
2021/08/25 07:02:38;;;;;;;;;;;26.10;58.50;;;;;;4992207;28;19926;-62
2021/08/25 07:05:06;;;;;;;;;;;26.10;58.50;;;;;;4991979;28;19925;-62
2021/08/25 07:07:34;;;;;;;;;;;26.10;58.40;;;;;;4992401;28;20000;-63
2021/08/25 07:10:01;;;;;;;;;;;26.10;58.50;;;;;;4991910;28;19936;-62
2021/08/25 07:12:27;;;;;;;;;;;26.10;58.50;;;;;;4993447;28;20021;-63
2021/08/25 07:14:54;;;;;;;;;;;26.10;58.50;;;;;;4991910;28;19929;-63
2021/08/25 07:17:25;;;;;;;;;;;26.00;58.50;;;;;;4992009;28;19926;-63
2021/08/25 07:19:52;;;;;;;;;;;26.10;58.50;;;;;;4991993;28;19981;-63
2021/08/25 07:22:19;;;;;;;;;;;26.00;58.50;;;;;;4992882;28;19925;-63
2021/08/25 07:24:46;;;;;;;;;;;26.10;58.50;;;;;;4993383;28;20292;-63
2021/08/25 07:27:13;;;;;;;;;;;26.10;58.40;;;;;;4976203;28;19926;-63
2021/08/25 07:29:40;;;;;;;;;;;26.10;58.30;;;;;;4991879;28;19925;-63
2021/08/25 07:32:07;;;;;;;;;;;26.10;58.30;;;;;;4993208;28;20033;-63
2021/08/25 07:34:34;;;;;;;;;;;26.20;58.30;;;;;;4992874;28;20013;-63
2021/08/25 07:37:01;;;;;;;;;;;26.20;58.30;;;;;;4992721;28;20337;-63
2021/08/25 07:39:28;;;;;;;;;;;26.20;58.20;;;;;;4992691;28;20440;-63
2021/08/25 07:41:55;;;;;;;;;;;26.20;58.10;;;;;;4991815;28;19948;-63
2021/08/25 07:44:22;;;;;;;;;;;26.20;58.10;;;;;;4991870;28;19926;-63
2021/08/25 07:46:49;;;;;;;;;;;26.20;58.00;;;;;;4974523;28;19926;-63
2021/08/25 07:49:16;;;;;;;;;;;26.30;58.00;;;;;;4992456;28;19977;-63
2021/08/25 07:51:43;;;;;;;;;;;26.30;58.00;;;;;;4991718;28;20312;-62
2021/08/25 07:54:10;;;;;;;;;;;26.30;57.90;;;;;;4991348;28;19932;-63
2021/08/25 07:56:37;;;;;;;;;;;26.30;57.90;;;;;;4992044;28;19933;-63
2021/08/25 07:59:04;;;;;;;;;;;26.30;57.90;;;;;;4991316;28;20009;-62
2021/08/25 08:01:31;;;;;;;;;;;26.30;57.80;;;;;;4975308;28;19929;-63
2021/08/25 08:03:58;;;;;;;;;;;26.30;57.70;;;;;;4973285;28;19926;-62
2021/08/25 08:06:25;;;;;;;;;;;26.30;57.70;;;;;;4991307;28;20356;-63
2021/08/25 08:08:52;;;;;;;;;;;26.30;57.70;;;;;;4992498;28;19926;-62
2021/08/25 08:11:19;;;;;;;;;;;26.40;57.70;;;;;;4992549;28;19925;-62
2021/08/25 08:13:46;;;;;;;;;;;26.40;57.60;;;;;;4992400;28;20246;-63
2021/08/25 08:16:19;;;;;;;;;;;26.40;57.50;;;;;;4991281;28;19984;-63
2021/08/25 08:19:04;;;;;;;;;;;26.40;57.50;;;;;;4976487;28;20000;-63
2021/08/25 08:21:31;;;;;;;;;;;26.40;57.40;;;;;;4977348;28;19930;-64
2021/08/25 08:23:58;;;;;;;;;;;26.50;57.40;;;;;;4992084;28;19932;-64
2021/08/25 08:26:26;;;;;;;;;;;26.40;57.30;;;;;;4992063;28;19972;-63
2021/08/25 08:28:53;;;;;;;;;;;26.50;57.90;;;;;;4992033;28;19932;-63
2021/08/25 08:31:20;;;;;;;;;;;26.50;57.30;;;;;;4992072;28;19932;-63
2021/08/25 08:33:47;;;;;;;;;;;26.50;57.30;;;;;;4992398;28;19971;-63
2021/08/25 08:36:14;;;;;;;;;;;26.50;57.30;;;;;;4989823;28;19932;-64
2021/08/25 08:38:41;;;;;;;;;;;26.50;57.30;;;;;;4990896;28;19933;-63
2021/08/25 08:41:07;;;;;;;;;;;26.50;57.30;;;;;;4992076;28;20028;-63
2021/08/25 08:43:35;;;;;;;;;;;26.50;57.10;;;;;;4992083;28;20029;-63
2021/08/25 08:46:02;;;;;;;;;;;26.60;57.20;;;;;;4990960;28;20021;-64
2021/08/25 08:48:34;;;;;;;;;;;26.50;57.10;;;;;;4990502;28;19926;-63
2021/08/25 08:51:01;;;;;;;;;;;26.50;57.10;;;;;;4990764;28;19976;-64
2021/08/25 08:53:28;;;;;;;;;;;26.60;57.10;;;;;;4990604;28;19976;-63
2021/08/25 08:55:55;;;;;;;;;;;26.60;57.10;;;;;;4974135;28;19980;-64
2021/08/25 08:58:22;;;;;;;;;;;26.50;57.00;;;;;;4992027;28;19948;-63
2021/08/25 09:00:49;;;;;;;;;;;26.60;57.10;;;;;;4990451;28;19933;-63
2021/08/25 09:03:24;;;;;;;;;;;26.50;57.60;;;;;;4991583;28;19933;-64
2021/08/25 09:05:53;;;;;;;;;;;26.50;57.00;;;;;;4991349;28;19926;-63
2021/08/25 09:08:22;;;;;;;;;;;26.50;57.00;;;;;;4991714;28;20009;-63
2021/08/25 09:10:58;;;;;;;;;;;26.60;57.10;;;;;;4990422;28;20016;-63
2021/08/25 09:13:31;;;;;;;;;;;26.50;57.10;;;;;;4990606;28;19930;-63
2021/08/25 09:15:58;;;;;;;;;;;26.50;57.00;;;;;;4990790;28;19926;-63
2021/08/25 09:18:25;;;;;;;;;;;26.50;57.00;;;;;;4991231;28;20356;-63
2021/08/25 09:20:52;;;;;;;;;;;26.60;57.00;;;;;;4991095;28;19973;-62
2021/08/25 09:23:23;;;;;;;;;;;26.60;57.00;;;;;;4990933;28;19933;-63
2021/08/25 09:26:00;;;;;;;;;;;26.60;57.00;;;;;;4991454;28;20004;-64
2021/08/25 09:28:28;;;;;;;;;;;26.60;56.90;;;;;;4990163;28;19977;-63
2021/08/25 09:30:59;;;;;;;;;;;26.60;56.90;;;;;;4991275;28;19975;-63
2021/08/25 09:33:29;;;;;;;;;;;26.60;56.90;;;;;;4989955;28;19934;-63
2021/08/25 09:35:57;;;;;;;;;;;26.60;56.90;;;;;;4990915;28;19926;-63
2021/08/25 09:38:26;;;;;;;;;;;26.60;57.00;;;;;;4989947;28;19930;-63
2021/08/25 09:40:54;;;;;;;;;;;26.50;56.90;;;;;;4990993;28;19941;-63
2021/08/25 09:43:27;;;;;;;;;;;26.60;57.00;;;;;;4990863;28;20415;-63
2021/08/25 09:46:04;;;;;;;;;;;26.50;57.00;;;;;;4990747;28;19966;-63
2021/08/25 09:48:32;;;;;;;;;;;26.50;57.00;;;;;;4973955;28;19926;-63
2021/08/25 09:50:59;;;;;;;;;;;26.50;57.10;;;;;;4991140;28;20400;-63
2021/08/25 09:53:26;;;;;;;;;;;26.50;57.10;;;;;;4990857;28;19926;-63
2021/08/25 09:55:53;;;;;;;;;;;26.50;57.00;;;;;;4990660;28;20005;-63
2021/08/25 09:58:23;;;;;;;;;;;26.50;57.00;;;;;;4989666;28;19972;-63
2021/08/25 10:00:52;;;;;;;;;;;26.50;57.00;;;;;;4990642;28;19948;-63
2021/08/25 10:03:19;;;;;;;;;;;26.50;57.00;;;;;;4990503;28;19926;-64
2021/08/25 10:05:47;;;;;;;;;;;26.50;56.90;;;;;;4989626;28;19925;-63
2021/08/25 10:08:16;;;;;;;;;;;26.50;56.90;;;;;;4989627;28;19930;-64
2021/08/25 10:10:43;;;;;;;;;;;26.60;56.90;;;;;;4990305;28;19961;-63
2021/08/25 10:13:10;;;;;;;;;;;26.60;56.90;;;;;;4952889;28;20444;-63
2021/08/25 10:15:44;;;;;;;;;;;26.60;56.80;;;;;;4984841;28;20421;-63
2021/08/25 10:18:21;;;;;;;;;;;26.60;56.80;;;;;;4972390;28;20012;-63
2021/08/25 10:20:47;;;;;;;;;;;26.60;56.80;;;;;;4989909;28;19926;-63
2021/08/25 10:23:14;;;;;;;;;;;26.60;56.70;;;;;;4990292;28;19926;-64
2021/08/25 10:26:01;;;;;;;;;;;26.60;56.80;;;;;;4989159;28;19995;-63
2021/08/25 10:28:48;;;;;;;;;;;26.60;56.80;;;;;;4988810;28;19934;-64
2021/08/25 10:31:15;;;;;;;;;;;26.60;56.80;;;;;;4989164;28;19983;-63
2021/08/25 10:34:02;;;;;;;;;;;26.50;56.80;;;;;;4989123;28;19932;-64
2021/08/25 10:36:29;;;;;;;;;;;26.50;56.90;;;;;;4990179;28;20402;-63
2021/08/25 10:38:56;;;;;;;;;;;26.50;57.00;;;;;;4973287;28;20055;-63
2021/08/25 10:41:23;;;;;;;;;;;26.50;57.00;;;;;;4990454;28;19968;-63
2021/08/25 10:43:50;;;;;;;;;;;26.50;57.10;;;;;;4990071;28;19972;-63
2021/08/25 10:46:19;;;;;;;;;;;26.40;57.10;;;;;;4990072;28;20008;-63
2021/08/25 10:48:56;;;;;;;;;;;26.40;57.20;;;;;;4990438;28;19980;-64
2021/08/25 10:51:24;;;;;;;;;;;26.40;57.20;;;;;;4989968;28;20013;-63
2021/08/25 10:53:51;;;;;;;;;;;26.30;57.20;;;;;;4989919;28;20324;-63
2021/08/25 10:56:28;;;;;;;;;;;26.40;57.30;;;;;;4988328;28;20431;-63
2021/08/25 10:58:58;;;;;;;;;;;26.30;57.30;;;;;;4972779;28;19926;-63
2021/08/25 11:01:25;;;;;;;;;;;26.30;57.30;;;;;;4989980;28;20340;-63
2021/08/25 11:03:53;;;;;;;;;;;26.30;57.40;;;;;;4989709;28;19933;-63
2021/08/25 11:06:46;;;;;;;;;;;26.30;57.40;;;;;;4988702;28;20009;-63
2021/08/25 11:09:14;;;;;;;;;;;26.30;57.40;;;;;;4991641;28;20322;-65
2021/08/25 11:11:45;;;;;;;;;;;26.30;57.50;;;;;;4988740;28;20372;-63
2021/08/25 11:14:16;;;;;;;;;;;26.20;57.50;;;;;;4988911;28;20013;-64
2021/08/25 11:16:43;;;;;;;;;;;26.20;57.50;;;;;;4989454;28;20460;-63
2021/08/25 11:19:24;;;;;;;;;;;26.20;57.50;;;;;;4988471;28;19926;-63
2021/08/25 11:21:52;;;;;;;;;;;26.20;57.50;;;;;;4989397;28;19932;-63
2021/08/25 11:24:19;;;;;;;;;;;26.20;57.60;;;;;;4988707;28;19965;-63
2021/08/25 11:26:46;;;;;;;;;;;26.20;57.60;;;;;;4989672;28;19952;-63
2021/08/25 11:29:17;;;;;;;;;;;26.20;57.60;;;;;;4989399;28;19969;-64
2021/08/25 11:31:44;;;;;;;;;;;26.20;57.60;;;;;;4989527;28;20408;-63
2021/08/25 11:34:13;;;;;;;;;;;26.20;57.70;;;;;;4989439;28;20005;-64
2021/08/25 11:37:06;;;;;;;;;;;26.20;57.70;;;;;;4989497;28;19934;-63
2021/08/25 11:39:32;;;;;;;;;;;26.20;57.70;;;;;;4989922;28;19925;-64
2021/08/25 11:41:59;;;;;;;;;;;26.20;57.70;;;;;;4992782;28;20389;-63
2021/08/25 11:44:37;;;;;;;;;;;26.20;57.80;;;;;;4992896;28;19926;-65
2021/08/25 11:47:11;;;;;;;;;;;26.20;57.80;;;;;;4991906;28;20021;-63
2021/08/25 11:49:39;;;;;;;;;;;26.10;57.80;;;;;;4992732;28;20024;-63
2021/08/25 11:52:07;;;;;;;;;;;26.20;57.80;;;;;;4992474;28;19934;-63
2021/08/25 11:54:34;;;;;;;;;;;26.10;57.80;;;;;;4992433;28;20378;-63
2021/08/25 11:57:01;;;;;;;;;;;26.10;57.80;;;;;;4991048;28;20035;-63
2021/08/25 11:59:28;;;;;;;;;;;26.20;57.80;;;;;;4991980;28;20019;-63
2021/08/25 12:02:07;;;;;;;;;;;26.10;57.80;;;;;;4975522;28;19926;-63
2021/08/25 12:04:34;;;;;;;;;;;26.10;57.80;;;;;;4975881;28;19926;-63
2021/08/25 12:07:10;;;;;;;;;;;26.10;57.80;;;;;;4992448;28;20025;-63
2021/08/25 12:09:37;;;;;;;;;;;26.10;57.80;;;;;;4991337;28;19926;-63
2021/08/25 12:12:04;;;;;;;;;;;26.10;57.80;;;;;;4992558;28;20017;-63
2021/08/25 12:14:50;;;;;;;;;;;26.10;57.80;;;;;;4992206;28;19969;-64
2021/08/25 12:17:17;;;;;;;;;;;26.10;57.80;;;;;;4991590;28;19970;-63
2021/08/25 12:19:58;;;;;;;;;;;26.10;57.80;;;;;;4992418;28;20305;-64
2021/08/25 12:22:26;;;;;;;;;;;26.10;57.80;;;;;;4991833;28;20300;-64
2021/08/25 12:24:54;;;;;;;;;;;26.10;57.80;;;;;;4992271;28;19925;-63
2021/08/25 12:27:22;;;;;;;;;;;26.10;57.70;;;;;;4992003;28;19954;-63
2021/08/25 12:29:49;;;;;;;;;;;26.10;57.80;;;;;;4990313;28;20323;-63
2021/08/25 12:32:16;;;;;;;;;;;26.10;57.80;;;;;;4991210;28;19972;-64
2021/08/25 12:34:59;;;;;;;;;;;26.10;57.80;;;;;;4991787;28;19925;-63
2021/08/25 12:37:45;;;;;;;;;;;26.10;57.80;;;;;;4991913;28;19937;-63
2021/08/25 12:40:11;;;;;;;;;;;26.10;57.80;;;;;;4990667;28;19959;-64
2021/08/25 12:42:38;;;;;;;;;;;26.10;57.80;;;;;;4991032;28;19964;-63
2021/08/25 12:45:05;;;;;;;;;;;26.10;57.80;;;;;;4991843;28;19926;-63
2021/08/25 12:47:32;;;;;;;;;;;26.10;57.80;;;;;;4991833;28;20013;-63
2021/08/25 12:49:59;;;;;;;;;;;26.10;57.80;;;;;;4989942;28;19926;-64
2021/08/25 12:52:27;;;;;;;;;;;26.10;57.80;;;;;;4990871;28;20323;-63
2021/08/25 12:54:54;;;;;;;;;;;26.10;57.80;;;;;;4990537;28;19925;-63
2021/08/25 12:57:20;;;;;;;;;;;26.10;57.80;;;;;;4990404;28;19976;-63
2021/08/25 12:59:48;;;;;;;;;;;26.10;57.80;;;;;;4991612;28;19932;-63
2021/08/25 13:02:15;;;;;;;;;;;26.10;57.80;;;;;;4991350;28;19976;-63
2021/08/25 13:04:43;;;;;;;;;;;26.10;57.70;;;;;;4991409;28;20017;-63
2021/08/25 13:07:12;;;;;;;;;;;26.10;57.80;;;;;;4989761;28;20221;-63
2021/08/25 13:09:39;;;;;;;;;;;26.10;57.80;;;;;;4991321;28;19973;-63
2021/08/25 13:12:06;;;;;;;;;;;26.10;57.80;;;;;;4991410;28;19973;-62
2021/08/25 13:14:33;;;;;;;;;;;26.00;57.70;;;;;;4990249;28;19926;-63
2021/08/25 13:17:00;;;;;;;;;;;26.10;57.80;;;;;;4990243;28;20401;-63
2021/08/25 13:19:27;;;;;;;;;;;26.10;57.80;;;;;;4991505;28;19933;-63
2021/08/25 13:21:54;;;;;;;;;;;26.10;57.80;;;;;;4991211;28;20009;-63
2021/08/25 13:24:21;;;;;;;;;;;26.10;57.80;;;;;;4991138;28;19926;-63
2021/08/25 13:26:48;;;;;;;;;;;26.10;57.80;;;;;;4991187;28;20032;-64
2021/08/25 13:29:15;;;;;;;;;;;26.10;57.80;;;;;;5062431;28;20345;-64
2021/08/25 13:31:42;;;;;;;;;;;26.10;58.40;;;;;;4991464;28;19975;-63
2021/08/25 13:34:09;;;;;;;;;;;26.10;57.80;;;;;;4991330;28;19974;-64
2021/08/25 13:36:36;;;;;;;;;;;26.10;57.80;;;;;;4991255;28;19953;-63
2021/08/25 13:39:03;;;;;;;;;;;26.10;57.80;;;;;;4991286;28;19953;-63
2021/08/25 13:41:30;;;;;;;;;;;26.10;57.80;;;;;;4991330;28;19975;-64
2021/08/25 13:43:57;;;;;;;;;;;26.10;58.40;;;;;;4991132;28;19929;-63
2021/08/25 13:46:24;;;;;;;;;;;26.00;57.70;;;;;;4989962;28;19953;-63
2021/08/25 13:48:51;;;;;;;;;;;26.10;57.70;;;;;;4990178;28;19975;-63
2021/08/25 13:51:18;;;;;;;;;;;26.10;57.80;;;;;;4989702;28;19926;-63
2021/08/25 13:53:45;;;;;;;;;;;26.10;57.70;;;;;;4990991;28;20009;-63
2021/08/25 13:56:13;;;;;;;;;;;26.10;57.80;;;;;;4990618;28;20385;-63
2021/08/25 13:58:40;;;;;;;;;;;26.10;57.70;;;;;;4990785;28;19933;-63
2021/08/25 14:01:07;;;;;;;;;;;26.10;57.80;;;;;;4989884;28;19936;-64
2021/08/25 14:03:34;;;;;;;;;;;26.10;57.80;;;;;;4990772;28;19984;-64
2021/08/25 14:06:02;;;;;;;;;;;26.00;57.70;;;;;;4990860;28;20444;-63
2021/08/25 14:08:29;;;;;;;;;;;26.10;57.70;;;;;;4990584;28;19973;-63
2021/08/25 14:10:56;;;;;;;;;;;26.10;57.70;;;;;;4990586;28;20021;-63
2021/08/25 14:13:23;;;;;;;;;;;26.00;57.70;;;;;;4990916;28;20297;-63
2021/08/25 14:15:50;;;;;;;;;;;26.10;57.70;;;;;;4990447;28;19926;-63
2021/08/25 14:18:17;;;;;;;;;;;26.00;57.70;;;;;;4990545;28;19965;-63
2021/08/25 14:20:44;;;;;;;;;;;26.00;57.70;;;;;;4989511;28;20020;-63